createdAt,value
2019-01-06T00:01:53.213Z,39.60
2019-01-06T00:04:26.202Z,33.25
2019-01-06T00:06:56.456Z,34.90
2019-01-06T00:09:45.306Z,38.27
2019-01-06T00:12:15.566Z,43.20
2019-01-06T00:15:02.378Z,44.50
2019-01-06T00:17:38.423Z,37.50
2019-01-06T00:20:11.950Z,39.10
2019-01-06T00:22:42.199Z,40.10
2019-01-06T00:25:18.224Z,39.20
2019-01-06T00:27:57.318Z,42.77
2019-01-06T00:30:36.664Z,33.53
2019-01-06T00:33:13.109Z,34.00
2019-01-06T00:35:59.871Z,29.97
2019-01-06T00:38:39.332Z,42.20
2019-01-06T00:41:22.288Z,36.23
2019-01-06T00:44:10.870Z,38.63
2019-01-06T00:46:44.372Z,38.83
2019-01-06T00:49:30.807Z,49.00
2019-01-06T00:52:13.228Z,40.97
2019-01-06T00:54:49.758Z,41.40
2019-01-06T00:57:26.300Z,35.83
2019-01-06T00:59:56.552Z,37.77
2019-01-06T01:02:32.952Z,39.67
2019-01-06T01:05:12.304Z,35.37
2019-01-06T01:07:51.767Z,31.00
2019-01-06T01:10:28.288Z,32.17
2019-01-06T01:12:58.627Z,33.37
2019-01-06T01:15:28.878Z,35.73
2019-01-06T01:18:15.710Z,33.13
2019-01-06T01:20:45.967Z,42.17
2019-01-06T01:23:32.607Z,33.97
2019-01-06T01:29:13.114Z,40.80
2019-01-06T01:31:43.388Z,37.70
2019-01-06T01:34:19.458Z,31.73
2019-01-06T01:36:58.884Z,32.07
2019-01-06T01:39:32.020Z,32.47
2019-01-06T01:42:02.344Z,34.50
2019-01-06T01:44:49.231Z,33.13
2019-01-06T01:47:36.024Z,32.87
2019-01-06T01:50:15.795Z,31.07
2019-01-06T01:53:02.280Z,33.23
2019-01-06T01:55:51.134Z,30.57
2019-01-06T01:58:24.361Z,31.80
2019-01-06T02:01:00.692Z,30.47
2019-01-06T02:03:47.214Z,31.07
2019-01-06T02:06:23.714Z,34.53
2019-01-06T02:08:56.954Z,86.23
2019-01-06T02:11:43.463Z,129.43
2019-01-06T02:14:29.041Z,61.33
2019-01-06T02:17:17.607Z,47.70
2019-01-06T02:19:53.701Z,43.87
2019-01-06T02:22:30.174Z,51.27
2019-01-06T02:25:09.626Z,49.63
2019-01-06T02:27:56.595Z,54.00
2019-01-06T02:30:26.847Z,59.97
2019-01-06T02:33:03.407Z,55.77
2019-01-06T02:35:33.666Z,52.33
2019-01-06T02:38:03.921Z,159.80
2019-01-06T02:40:34.350Z,236.53
2019-01-06T02:43:07.811Z,100.97
2019-01-06T02:45:50.221Z,62.90
2019-01-06T02:48:26.510Z,59.77
2019-01-06T02:50:56.838Z,66.67
2019-01-06T02:53:43.438Z,56.20
2019-01-06T02:56:16.564Z,46.30
2019-01-06T02:58:52.604Z,47.57
2019-01-06T03:01:38.476Z,43.50
2019-01-06T03:04:23.882Z,41.67
2019-01-06T03:06:57.146Z,116.47
2019-01-06T03:09:33.369Z,59.97
2019-01-06T03:12:06.485Z,45.70
2019-01-06T03:14:39.830Z,41.03
2019-01-06T03:17:16.228Z,37.53
2019-01-06T03:20:03.090Z,36.40
2019-01-06T03:22:51.878Z,36.43
2019-01-06T03:25:37.143Z,35.07
2019-01-06T03:28:22.983Z,45.03
2019-01-06T03:31:09.669Z,58.00
2019-01-06T03:33:57.985Z,121.83
2019-01-06T03:36:34.212Z,155.47
2019-01-06T03:39:07.836Z,63.47
2019-01-06T03:41:40.822Z,57.97
2019-01-06T03:44:30.071Z,61.83
2019-01-06T03:47:16.502Z,47.80
2019-01-06T03:49:47.030Z,47.87
2019-01-06T03:52:35.589Z,54.93
2019-01-06T03:55:21.080Z,79.33
2019-01-06T03:57:51.342Z,51.27
2019-01-06T04:00:27.685Z,56.77
2019-01-06T04:02:57.943Z,47.70
2019-01-06T04:05:28.357Z,45.60
2019-01-06T04:07:58.597Z,34.17
2019-01-06T04:10:37.961Z,36.70
2019-01-06T04:13:24.689Z,31.53
2019-01-06T04:16:04.198Z,32.90
2019-01-06T04:18:50.826Z,33.37
2019-01-06T04:21:21.558Z,37.13
2019-01-06T04:24:08.115Z,37.83
2019-01-06T04:26:54.981Z,40.20
2019-01-06T04:29:40.456Z,36.87
2019-01-06T04:32:17.515Z,34.63
2019-01-06T04:34:50.953Z,29.37
2019-01-06T04:37:39.647Z,30.80
2019-01-06T04:40:12.586Z,30.07
2019-01-06T04:42:48.890Z,30.47
2019-01-06T04:45:28.371Z,29.53
2019-01-06T04:48:01.949Z,29.20
2019-01-06T04:50:32.198Z,28.30
2019-01-06T08:30:41.667Z,57.53
2019-01-06T08:33:14.918Z,54.70
2019-01-06T08:35:48.047Z,59.23
2019-01-06T08:38:34.600Z,38.77
2019-01-06T08:41:14.157Z,41.73
2019-01-06T08:43:59.670Z,31.93
2019-01-06T08:46:46.039Z,31.10
2019-01-06T08:49:22.030Z,26.00
2019-01-06T08:52:09.283Z,30.87
2019-01-06T08:54:48.483Z,30.27
2019-01-06T08:57:21.990Z,26.83
2019-01-06T09:00:07.367Z,56.93
2019-01-06T09:02:54.176Z,48.17
2019-01-06T09:05:42.611Z,38.53
2019-01-06T09:08:22.050Z,36.80
2019-01-06T09:10:58.318Z,59.93
2019-01-06T09:13:44.845Z,72.83
2019-01-06T09:16:15.101Z,43.10
2019-01-06T09:18:48.130Z,48.03
2019-01-06T09:21:27.380Z,38.80
2019-01-06T09:24:10.260Z,40.67
2019-01-06T09:26:46.723Z,47.87
2019-01-06T09:29:17.122Z,39.27
2019-01-06T09:32:02.634Z,56.30
2019-01-06T09:34:49.488Z,57.77
2019-01-06T09:37:25.656Z,58.73
2019-01-06T09:39:56.226Z,154.07
2019-01-06T09:42:42.838Z,78.30
2019-01-06T09:45:17.472Z,101.57
2019-01-06T09:48:06.009Z,90.10
2019-01-06T09:50:54.508Z,103.83
2019-01-06T09:53:30.551Z,91.60
2019-01-06T09:56:15.983Z,123.10
2019-01-06T09:59:02.343Z,101.50
2019-01-06T10:01:52.807Z,77.80
2019-01-06T10:04:35.139Z,57.13
2019-01-06T10:07:16.509Z,47.63
2019-01-06T10:10:02.982Z,71.33
2019-01-06T10:12:42.392Z,56.23
2019-01-06T10:15:28.599Z,34.07
2019-01-06T10:18:17.469Z,92.07
2019-01-06T10:20:47.726Z,95.63
2019-01-06T10:23:34.188Z,63.60
2019-01-06T10:26:10.550Z,39.43
2019-01-06T10:28:57.681Z,124.90
2019-01-06T10:31:46.037Z,83.00
2019-01-06T10:34:34.979Z,44.87
2019-01-06T10:37:15.209Z,36.37
2019-01-06T10:39:48.677Z,55.23
2019-01-06T10:42:23.355Z,59.87
2019-01-06T10:44:53.760Z,59.73
2019-01-06T10:47:33.266Z,63.77
2019-01-06T10:50:21.314Z,69.90
2019-01-06T10:53:03.852Z,41.00
2019-01-06T10:55:50.835Z,52.47
2019-01-06T10:58:37.547Z,36.13
2019-01-06T11:01:07.986Z,36.90
2019-01-06T11:03:50.356Z,38.93
2019-01-06T11:06:28.462Z,39.63
2019-01-06T11:09:01.807Z,41.23
2019-01-06T11:11:44.331Z,46.83
2019-01-06T11:14:15.488Z,50.57
2019-01-06T11:17:04.275Z,69.00
2019-01-06T11:19:34.536Z,75.23
2019-01-06T11:22:07.579Z,48.80
2019-01-06T11:24:43.992Z,50.30
2019-01-06T11:27:14.315Z,48.90
2019-01-06T11:29:56.974Z,72.37
2019-01-06T11:32:30.570Z,62.53
2019-01-06T11:35:13.102Z,54.53
2019-01-06T11:37:59.665Z,52.73
2019-01-06T11:40:45.979Z,62.77
2019-01-06T11:43:19.600Z,90.87
2019-01-06T11:45:49.862Z,80.33
2019-01-06T11:48:36.324Z,146.47
2019-01-06T11:51:22.744Z,170.80
2019-01-06T11:54:05.102Z,164.70
2019-01-06T11:56:35.343Z,99.67
2019-01-06T11:59:11.770Z,83.13
2019-01-06T12:01:42.037Z,121.63
2019-01-06T12:04:12.321Z,169.70
2019-01-06T12:06:59.056Z,147.90
2019-01-06T12:09:35.111Z,92.83
2019-01-06T12:12:05.771Z,152.73
2019-01-06T12:14:42.179Z,108.87
2019-01-06T12:17:12.691Z,75.10
2019-01-06T12:19:59.297Z,51.93
2019-01-06T12:22:44.897Z,45.80
2019-01-06T12:25:15.177Z,57.47
2019-01-06T12:27:48.663Z,56.60
2019-01-06T12:30:22.057Z,42.47
2019-01-06T12:33:08.658Z,33.63
2019-01-06T12:35:56.052Z,19.43
2019-01-06T12:38:33.892Z,11.10
2019-01-06T12:41:20.544Z,16.73
2019-01-06T12:44:04.169Z,15.53
2019-01-06T12:46:52.685Z,14.20
2019-01-06T12:49:28.982Z,15.40
2019-01-06T12:52:03.065Z,16.27
2019-01-06T12:54:49.618Z,15.80
2019-01-06T12:57:25.854Z,15.40
2019-01-06T12:59:59.659Z,20.27
2019-01-06T13:02:32.635Z,17.47
2019-01-06T13:05:21.097Z,18.43
2019-01-06T13:07:51.356Z,20.33
2019-01-06T13:10:24.746Z,22.53
2019-01-06T13:13:11.303Z,26.83
2019-01-06T13:15:47.745Z,35.67
2019-01-06T13:18:23.985Z,25.70
2019-01-06T13:21:03.124Z,34.23
2019-01-06T13:23:33.377Z,18.70
2019-01-06T13:26:22.266Z,19.77
2019-01-06T13:28:58.492Z,28.33
2019-01-06T13:31:29.159Z,12.50
2019-01-06T13:34:05.417Z,14.40
2019-01-06T13:36:36.083Z,13.23
2019-01-06T13:39:19.633Z,17.87
2019-01-06T13:41:50.038Z,13.83
2019-01-06T13:44:36.632Z,18.73
2019-01-06T13:47:19.517Z,21.93
2019-01-06T13:49:58.572Z,25.23
2019-01-06T13:52:31.946Z,16.97
2019-01-06T13:55:18.578Z,19.27
2019-01-06T13:58:07.206Z,17.00
2019-01-06T14:00:49.403Z,19.17
2019-01-06T14:03:26.012Z,21.27
2019-01-06T14:06:11.554Z,14.03
2019-01-06T14:08:57.188Z,21.30
2019-01-06T14:11:39.629Z,21.00
2019-01-06T14:14:12.880Z,22.97
2019-01-06T14:16:52.027Z,16.63
2019-01-06T14:19:22.340Z,16.10
2019-01-06T14:22:08.922Z,16.93
2019-01-06T14:24:57.354Z,25.67
2019-01-06T14:27:36.609Z,31.33
2019-01-06T14:30:10.012Z,34.53
2019-01-06T14:32:40.256Z,34.77
2019-01-06T14:35:22.626Z,32.33
2019-01-06T14:38:09.185Z,39.17
2019-01-06T14:40:58.107Z,43.07
2019-01-06T14:43:30.940Z,34.63
2019-01-06T14:46:09.995Z,28.40
2019-01-06T14:48:56.621Z,28.43
2019-01-06T14:51:36.566Z,36.27
2019-01-06T14:54:12.793Z,34.97
2019-01-06T14:56:58.568Z,33.47
2019-01-06T14:59:38.067Z,30.33
2019-01-06T15:02:11.510Z,24.63
2019-01-06T15:04:57.105Z,47.57
2019-01-06T15:07:45.849Z,47.77
2019-01-06T15:10:18.728Z,38.50
2019-01-06T15:12:54.696Z,54.17
2019-01-06T15:15:41.440Z,54.00
2019-01-06T15:18:27.882Z,61.03
2019-01-06T15:21:06.912Z,46.43
2019-01-06T15:23:52.434Z,41.53
2019-01-06T15:26:25.428Z,54.67
2019-01-06T15:29:12.274Z,36.60
2019-01-06T15:31:58.882Z,34.13
2019-01-06T15:34:32.141Z,47.90
2019-01-06T15:37:02.400Z,38.67
2019-01-06T15:39:48.891Z,35.60
2019-01-06T15:42:21.886Z,43.97
2019-01-06T15:45:08.818Z,63.33
2019-01-06T15:47:45.033Z,33.23
2019-01-06T15:50:27.570Z,29.97
2019-01-06T15:53:00.764Z,37.37
2019-01-06T15:55:47.719Z,37.30
2019-01-06T15:58:29.889Z,62.37
2019-01-06T16:01:15.502Z,76.23
2019-01-06T16:03:45.755Z,55.00
2019-01-06T16:06:16.008Z,70.60
2019-01-06T16:11:28.005Z,60.03
2019-01-06T16:14:17.087Z,57.67
2019-01-06T16:17:03.840Z,66.27
2019-01-06T16:19:34.227Z,52.23
2019-01-06T16:22:15.926Z,41.30
2019-01-06T16:25:01.620Z,34.80
2019-01-06T16:27:31.873Z,38.37
2019-01-06T16:30:05.121Z,37.07
2019-01-06T16:32:47.598Z,45.50
2019-01-06T16:35:20.567Z,79.77
2019-01-06T16:38:07.199Z,37.63
2019-01-06T16:40:37.467Z,70.50
2019-01-06T16:43:24.050Z,114.43
2019-01-06T16:46:10.717Z,138.33
2019-01-06T16:48:59.256Z,152.97
2019-01-06T16:51:39.121Z,173.50
2019-01-06T16:54:15.523Z,174.70
2019-01-06T16:56:48.741Z,119.63
2019-01-06T16:59:25.490Z,125.43
2019-01-06T17:01:55.746Z,138.30
2019-01-06T17:04:41.436Z,126.37
2019-01-06T17:07:11.708Z,142.73
2019-01-06T17:09:50.493Z,147.03
2019-01-06T17:12:32.760Z,105.90
2019-01-06T17:15:09.000Z,167.40
2019-01-06T17:17:55.569Z,197.77
2019-01-06T17:20:26.090Z,226.87
2019-01-06T17:22:59.315Z,215.17
2019-01-06T17:25:41.763Z,200.50
2019-01-06T17:28:12.010Z,199.00
2019-01-06T17:31:00.801Z,215.30
2019-01-06T17:33:40.070Z,132.70
2019-01-06T17:36:10.581Z,135.50
2019-01-06T17:38:46.860Z,139.77
2019-01-06T17:41:20.383Z,132.23
2019-01-06T17:43:50.647Z,139.87
2019-01-06T17:46:27.318Z,76.17
2019-01-06T17:49:00.282Z,63.93
2019-01-06T17:51:46.669Z,39.37
2019-01-06T17:54:21.321Z,29.57
2019-01-06T17:57:08.360Z,23.37
2019-01-06T17:59:50.571Z,21.83
2019-01-06T18:02:37.142Z,28.40
2019-01-06T18:05:08.872Z,23.03
2019-01-06T18:07:39.282Z,19.37
2019-01-06T18:10:22.037Z,17.03
2019-01-06T18:13:09.184Z,32.77
2019-01-06T18:15:55.793Z,26.60
2019-01-06T18:18:28.970Z,24.10
2019-01-06T18:21:02.827Z,27.43
2019-01-06T18:23:38.871Z,32.13
2019-01-06T18:26:26.688Z,29.57
2019-01-06T18:29:00.242Z,27.60
2019-01-06T18:31:46.987Z,510.73
2019-01-06T18:34:20.218Z,544.20
2019-01-06T18:36:50.494Z,488.47
2019-01-06T18:39:32.991Z,418.43
2019-01-06T18:42:19.460Z,401.50
2019-01-06T18:44:55.586Z,202.93
2019-01-06T18:47:25.839Z,39.53
2019-01-06T18:49:56.102Z,28.80
2019-01-06T18:52:29.251Z,22.33
2019-01-06T18:55:08.273Z,26.23
2019-01-06T18:57:38.683Z,25.60
2019-01-06T19:00:23.416Z,20.47
2019-01-06T19:02:56.556Z,59.50
2019-01-06T19:05:32.566Z,102.63
2019-01-06T19:08:18.314Z,66.13
2019-01-06T19:11:00.944Z,33.37
2019-01-06T19:13:31.371Z,47.87
2019-01-06T19:16:19.771Z,129.20
2019-01-06T19:19:06.267Z,268.20
2019-01-06T19:21:36.540Z,130.83
2019-01-06T19:24:09.861Z,115.63
2019-01-06T19:26:46.363Z,173.63
2019-01-06T19:29:16.628Z,216.20
2019-01-06T19:31:46.935Z,372.70
2019-01-06T19:34:33.610Z,287.57
2019-01-06T19:37:07.114Z,274.90
2019-01-06T19:39:40.422Z,252.47
2019-01-06T19:42:13.767Z,210.97
2019-01-06T19:44:44.065Z,289.47
2019-01-06T19:47:14.278Z,261.67
2019-01-06T19:49:53.803Z,193.43
2019-01-06T19:52:40.463Z,238.47
2019-01-06T19:55:19.582Z,238.47
2019-01-06T19:58:07.964Z,196.17
2019-01-06T20:00:44.214Z,212.97
2019-01-06T20:03:20.345Z,205.17
2019-01-06T20:05:56.466Z,163.87
2019-01-06T20:08:38.947Z,112.43
2019-01-06T20:11:12.289Z,80.20
2019-01-06T20:13:51.750Z,41.03
2019-01-06T20:16:22.562Z,61.33
2019-01-06T20:18:55.808Z,52.23
2019-01-06T20:21:26.103Z,39.73
2019-01-06T20:24:12.628Z,31.27
2019-01-06T20:26:45.791Z,28.63
2019-01-06T20:29:16.064Z,33.43
2019-01-06T20:31:46.591Z,42.90
2019-01-06T20:34:33.277Z,38.07
2019-01-06T20:37:03.527Z,43.90
2019-01-06T20:39:52.264Z,36.87
2019-01-06T20:42:25.556Z,34.50
2019-01-06T20:45:12.095Z,28.23
2019-01-06T20:47:45.099Z,42.33
2019-01-06T20:50:33.941Z,39.97
2019-01-06T20:53:06.784Z,34.97
2019-01-06T20:55:55.145Z,28.83
2019-01-06T20:58:28.359Z,24.67
2019-01-06T21:01:01.771Z,22.67
2019-01-06T21:03:32.062Z,24.13
2019-01-06T21:06:05.303Z,21.63
2019-01-06T21:08:38.801Z,20.43
2019-01-06T21:11:09.054Z,21.33
2019-01-06T21:13:55.686Z,18.53
2019-01-06T21:16:42.323Z,21.53
2019-01-06T21:19:21.461Z,21.17
2019-01-06T21:21:57.502Z,19.70
2019-01-06T21:24:28.000Z,25.27
2019-01-06T21:26:58.266Z,25.53
2019-01-06T21:29:37.998Z,20.80
2019-01-06T21:32:26.307Z,22.47
2019-01-06T21:35:05.677Z,21.53
2019-01-06T21:37:47.810Z,23.93
2019-01-06T21:40:27.614Z,24.13
2019-01-06T21:43:10.054Z,27.23
2019-01-06T21:45:43.129Z,27.63
2019-01-06T21:48:19.705Z,24.30
2019-01-06T21:50:50.031Z,18.80
2019-01-06T21:53:26.100Z,26.27
2019-01-06T21:55:56.413Z,34.37
2019-01-06T21:58:43.140Z,56.43
2019-01-06T22:01:28.864Z,62.30
2019-01-06T22:04:05.282Z,63.73
2019-01-06T22:06:47.957Z,50.37
2019-01-06T22:09:36.521Z,50.43
2019-01-06T22:12:23.074Z,35.50
2019-01-06T22:14:59.241Z,33.33
2019-01-06T22:17:33.693Z,53.70
2019-01-06T22:20:09.827Z,63.47
2019-01-06T22:22:42.853Z,47.87
2019-01-06T22:25:13.125Z,37.13
2019-01-06T22:27:59.873Z,34.43
2019-01-06T22:30:46.298Z,31.13
2019-01-06T22:33:16.626Z,25.00
2019-01-06T22:35:55.981Z,23.10
2019-01-06T22:38:32.113Z,26.03
2019-01-06T22:41:14.492Z,25.20
2019-01-06T22:43:56.851Z,20.37
2019-01-06T22:46:30.151Z,17.40
2019-01-06T22:49:00.394Z,16.73
2019-01-06T22:51:39.919Z,18.73
2019-01-06T22:54:15.635Z,16.73
2019-01-06T22:56:46.027Z,15.33
2019-01-06T22:59:35.879Z,15.00
2019-01-06T23:02:22.638Z,14.53
2019-01-06T23:04:55.799Z,12.40
2019-01-06T23:07:42.276Z,11.33
2019-01-06T23:10:12.532Z,11.53
2019-01-06T23:12:45.770Z,13.40
2019-01-06T23:15:16.083Z,14.30
2019-01-06T23:17:46.319Z,16.53
2019-01-06T23:20:29.791Z,14.67
2019-01-06T23:23:18.322Z,14.47
2019-01-06T23:26:07.016Z,17.00
2019-01-06T23:28:37.282Z,17.27
2019-01-06T23:31:19.976Z,17.80
2019-01-06T23:34:05.471Z,25.70
2019-01-06T23:36:35.879Z,35.10
2019-01-06T23:39:27.259Z,33.07
2019-01-06T23:42:14.009Z,40.17
2019-01-06T23:44:47.415Z,37.53
2019-01-06T23:47:17.803Z,30.83
2019-01-06T23:49:54.133Z,27.20
2019-01-06T23:52:33.512Z,28.27
2019-01-06T23:55:06.500Z,28.70
2019-01-06T23:57:42.924Z,24.70
